Time;durP1;ratioP1;P1;durP2;ratioP2;P2;SDS_P1;SDS_P2;PMS_P1;PMS_P2;Temp;Humidity;BMP_temperature;BMP_pressure;BME280_temperature;BME280_humidity;BME280_pressure;Samples;Min_cycle;Max_cycle;Signal;HPM_P1;HPM_P2
2022/04/25 00:01:13;;;;;;;4.60;0.98;;;14.00;18.50;;;;;;6338197;22;20403;-46
2022/04/25 00:03:38;;;;;;;1.83;0.93;;;14.00;18.40;;;;;;6338127;22;20010;-47
2022/04/25 00:06:04;;;;;;;1.33;0.50;;;14.00;18.50;;;;;;6337522;22;20395;-48
2022/04/25 00:08:30;;;;;;;0.85;0.50;;;14.00;18.50;;;;;;6336705;22;20010;-47
2022/04/25 00:10:56;;;;;;;2.70;0.68;;;14.00;18.60;;;;;;6337109;22;20029;-47
2022/04/25 00:13:22;;;;;;;1.70;0.80;;;13.90;18.60;;;;;;6338166;22;20002;-47
2022/04/25 00:15:48;;;;;;;2.15;0.88;;;13.90;18.70;;;;;;6337110;22;20003;-47
2022/04/25 00:18:14;;;;;;;1.25;0.80;;;13.90;18.90;;;;;;6337445;22;20006;-47
2022/04/25 00:20:39;;;;;;;1.85;0.75;;;13.90;18.80;;;;;;6337373;22;20006;-50
2022/04/25 00:23:05;;;;;;;1.67;0.63;;;13.90;18.70;;;;;;6337975;22;20034;-47
2022/04/25 00:25:33;;;;;;;3.65;0.70;;;13.80;18.90;;;;;;6337404;22;20013;-48
2022/04/25 00:27:59;;;;;;;1.00;0.55;;;13.80;19.00;;;;;;6337823;22;20015;-47
2022/04/25 00:30:26;;;;;;;3.28;0.90;;;13.80;19.00;;;;;;6337640;22;20037;-47
2022/04/25 00:32:52;;;;;;;1.77;0.68;;;13.80;19.10;;;;;;6337941;22;20003;-46
2022/04/25 00:35:17;;;;;;;1.42;0.63;;;13.90;19.00;;;;;;6337245;22;20041;-47
2022/04/25 00:37:43;;;;;;;3.42;1.15;;;13.80;19.10;;;;;;6337282;22;20009;-46
2022/04/25 00:40:10;;;;;;;4.20;0.63;;;13.90;19.20;;;;;;6337548;22;20011;-47
2022/04/25 00:42:36;;;;;;;0.77;0.60;;;13.80;19.30;;;;;;6338128;22;20003;-47
2022/04/25 00:45:02;;;;;;;3.33;0.52;;;13.80;20.30;;;;;;6337547;22;19999;-46
2022/04/25 00:47:29;;;;;;;1.50;0.80;;;13.80;23.00;;;;;;6338115;22;19998;-46
2022/04/25 00:49:54;;;;;;;2.08;0.98;;;13.60;19.40;;;;;;6337649;22;19995;-46
2022/04/25 00:52:20;;;;;;;2.72;1.00;;;13.80;21.20;;;;;;6337156;22;20027;-47
2022/04/25 00:54:46;;;;;;;3.58;1.10;;;13.70;19.80;;;;;;6338015;22;20078;-46
2022/04/25 00:57:12;;;;;;;3.58;1.70;;;13.70;19.70;;;;;;6337144;22;20394;-46
2022/04/25 00:59:38;;;;;;;2.72;1.30;;;13.70;19.80;;;;;;6337667;22;20011;-46
2022/04/25 01:02:04;;;;;;;3.78;1.40;;;13.70;20.00;;;;;;6309666;22;20001;-46
2022/04/25 01:04:30;;;;;;;3.90;1.80;;;13.70;20.00;;;;;;6309986;22;20007;-49
2022/04/25 01:06:56;;;;;;;2.22;1.33;;;13.70;20.00;;;;;;6337138;22;19994;-46
2022/04/25 01:09:24;;;;;;;3.15;1.63;;;13.70;20.10;;;;;;6337899;22;20010;-49
2022/04/25 01:11:50;;;;;;;2.47;1.40;;;13.60;20.10;;;;;;6336249;22;20070;-46
2022/04/25 01:14:17;;;;;;;1.65;1.17;;;13.70;20.80;;;;;;6337173;22;20022;-46
2022/04/25 01:16:44;;;;;;;1.48;1.20;;;13.70;20.40;;;;;;6336311;22;20390;-47
2022/04/25 01:19:10;;;;;;;3.95;1.50;;;13.60;20.30;;;;;;6336342;22;20011;-46
2022/04/25 01:22:01;;;;;;;2.25;1.33;;;13.60;20.90;;;;;;6336298;22;20071;-46
2022/04/25 01:27:16;;;;;;;2.38;1.27;;;13.50;21.10;;;;;;6335995;22;20013;-44
2022/04/25 01:29:52;;;;;;;4.03;1.50;;;13.50;20.80;;;;;;6336683;22;20067;-46
2022/04/25 01:32:19;;;;;;;3.00;1.90;;;13.50;20.70;;;;;;6336188;22;20003;-48
2022/04/25 01:34:45;;;;;;;4.78;2.35;;;13.50;20.90;;;;;;6336526;22;20469;-46
2022/04/25 01:37:13;;;;;;;2.45;1.52;;;13.50;21.00;;;;;;6336146;22;20327;-49
2022/04/25 01:39:42;;;;;;;4.78;1.60;;;13.60;21.00;;;;;;6336403;22;20011;-48
2022/04/25 01:42:08;;;;;;;3.22;1.63;;;13.50;21.00;;;;;;6336408;22;20143;-47
2022/04/25 01:44:34;;;;;;;4.10;1.98;;;13.60;21.20;;;;;;6336420;22;19999;-46
2022/04/25 01:47:00;;;;;;;2.47;2.10;;;13.50;21.40;;;;;;6336256;22;20327;-46
2022/04/25 01:49:26;;;;;;;3.30;1.83;;;13.50;21.30;;;;;;6308698;22;20014;-48
2022/04/25 01:51:52;;;;;;;4.65;1.52;;;13.60;21.50;;;;;;6336137;22;20074;-46
2022/04/25 01:54:26;;;;;;;2.15;1.50;;;13.60;21.70;;;;;;6336353;22;20006;-46
2022/04/25 01:56:53;;;;;;;3.33;1.98;;;13.60;23.30;;;;;;6336564;22;19999;-49
2022/04/25 01:59:19;;;;;;;2.78;1.33;;;13.70;24.20;;;;;;6337084;22;20022;-51
2022/04/25 02:01:45;;;;;;;3.60;1.65;;;13.70;28.20;;;;;;6338252;22;20003;-53
2022/04/25 02:04:11;;;;;;;2.70;1.30;;;13.60;21.00;;;;;;6339101;22;20298;-47
2022/04/25 02:06:37;;;;;;;4.03;1.50;;;13.60;21.30;;;;;;6338243;22;19999;-47
2022/04/25 02:09:02;;;;;;;4.15;1.50;;;13.50;21.50;;;;;;6339078;22;20078;-46
2022/04/25 02:11:30;;;;;;;3.85;1.48;;;13.50;21.60;;;;;;6338826;22;20044;-46
2022/04/25 02:13:56;;;;;;;4.65;1.38;;;13.60;21.60;;;;;;6339112;22;20370;-46
2022/04/25 02:16:23;;;;;;;4.63;1.60;;;13.50;21.80;;;;;;6338654;22;19999;-46
2022/04/25 02:18:50;;;;;;;4.65;1.25;;;13.50;21.70;;;;;;6311388;22;20411;-46
2022/04/25 02:21:16;;;;;;;1.60;1.17;;;13.50;21.90;;;;;;6338707;22;19995;-46
2022/04/25 02:23:41;;;;;;;5.85;1.70;;;13.50;21.80;;;;;;6338946;22;20327;-47
2022/04/25 02:26:08;;;;;;;4.03;1.40;;;13.40;21.90;;;;;;6338480;22;20006;-46
2022/04/25 02:28:34;;;;;;;3.25;1.25;;;13.50;22.00;;;;;;6305877;22;20021;-47
2022/04/25 02:31:04;;;;;;;2.05;1.20;;;13.50;22.00;;;;;;6307232;22;20003;-47
2022/04/25 02:33:31;;;;;;;5.35;1.27;;;13.50;22.30;;;;;;6306140;22;20011;-46
2022/04/25 02:35:57;;;;;;;3.53;1.73;;;13.40;22.50;;;;;;6307239;22;20070;-46
2022/04/25 02:38:22;;;;;;;3.33;1.10;;;13.50;22.50;;;;;;6308073;22;20014;-46
2022/04/25 02:41:04;;;;;;;6.43;1.60;;;13.40;22.40;;;;;;6307479;22;20003;-46
2022/04/25 02:43:39;;;;;;;2.85;1.60;;;13.50;22.40;;;;;;6308093;22;20049;-46
2022/04/25 02:46:09;;;;;;;4.65;1.48;;;13.50;22.80;;;;;;6306825;22;20015;-46
2022/04/25 02:48:36;;;;;;;2.22;1.10;;;13.50;22.60;;;;;;6307865;22;19999;-47
2022/04/25 02:51:03;;;;;;;3.42;1.80;;;13.40;22.70;;;;;;6307245;22;20034;-46
2022/04/25 02:53:29;;;;;;;3.92;1.65;;;13.50;22.60;;;;;;6307822;22;20432;-48
2022/04/25 02:55:56;;;;;;;2.80;1.05;;;13.40;22.70;;;;;;6307175;22;20003;-46
2022/04/25 02:58:23;;;;;;;2.95;1.55;;;13.50;22.80;;;;;;6306913;22;20056;-47
2022/04/25 03:00:49;;;;;;;4.45;1.23;;;13.50;22.80;;;;;;6307095;22;20000;-50
2022/04/25 03:03:16;;;;;;;3.40;1.90;;;13.40;22.90;;;;;;6307565;22;20049;-50
2022/04/25 03:05:43;;;;;;;1.88;1.50;;;13.40;22.90;;;;;;6307762;22;20377;-47
2022/04/25 03:08:11;;;;;;;3.25;1.55;;;13.40;23.30;;;;;;6307462;22;20086;-48
2022/04/25 03:10:37;;;;;;;4.10;1.20;;;13.50;37.00;;;;;;6307170;22;19999;-46
2022/04/25 03:13:07;;;;;;;2.40;1.33;;;13.30;23.40;;;;;;6307113;22;19999;-46
2022/04/25 03:15:34;;;;;;;4.28;1.13;;;13.40;23.50;;;;;;6307808;22;20007;-47
2022/04/25 03:18:01;;;;;;;4.03;1.40;;;13.40;23.30;;;;;;6306770;22;20003;-46
2022/04/25 03:20:27;;;;;;;4.15;1.60;;;13.30;23.60;;;;;;6307733;22;20296;-47
2022/04/25 03:22:56;;;;;;;2.42;1.48;;;13.30;23.60;;;;;;6306511;22;20002;-46
2022/04/25 03:25:22;;;;;;;3.45;1.70;;;13.30;24.60;;;;;;6306890;22;20429;-48
2022/04/25 03:27:48;;;;;;;1.50;1.17;;;13.40;31.50;;;;;;6314141;22;20096;-45
2022/04/25 03:30:13;;;;;;;2.30;1.40;;;13.40;24.70;;;;;;6337942;22;20003;-47
2022/04/25 03:32:46;;;;;;;2.95;1.40;;;13.30;23.60;;;;;;6337904;22;19999;-50
2022/04/25 03:35:13;;;;;;;3.00;1.60;;;13.30;24.00;;;;;;6338681;22;20069;-47
2022/04/25 03:37:39;;;;;;;3.58;1.67;;;13.20;24.00;;;;;;6337851;22;19995;-48
2022/04/25 03:40:06;;;;;;;1.98;1.55;;;13.10;24.10;;;;;;6337684;22;20436;-46
2022/04/25 03:42:32;;;;;;;3.33;1.40;;;13.30;24.10;;;;;;6337989;22;20002;-46
2022/04/25 03:44:57;;;;;;;3.00;1.08;;;13.30;24.10;;;;;;6338346;22;19999;-46
2022/04/25 03:47:23;;;;;;;2.50;1.80;;;13.20;24.20;;;;;;6337773;22;19999;-46
2022/04/25 03:49:49;;;;;;;2.78;1.40;;;13.20;24.20;;;;;;6338403;22;19999;-46
2022/04/25 03:52:15;;;;;;;2.47;1.42;;;13.20;24.30;;;;;;6337468;22;20011;-47
2022/04/25 03:57:24;;;;;;;4.07;1.40;;;13.20;24.50;;;;;;6337298;22;20161;-51
2022/04/25 03:59:50;;;;;;;3.88;1.50;;;13.20;24.60;;;;;;6338493;22;20248;-52
2022/04/25 04:02:16;;;;;;;1.75;1.33;;;13.30;24.70;;;;;;6337776;22;20047;-47
2022/04/25 04:04:41;;;;;;;4.47;1.45;;;13.20;24.70;;;;;;6338177;22;20324;-48
2022/04/25 04:07:07;;;;;;;4.55;1.67;;;13.20;24.60;;;;;;6337812;22;19998;-47
2022/04/25 04:09:45;;;;;;;4.25;1.35;;;13.20;24.80;;;;;;6338121;22;20003;-48
2022/04/25 04:12:19;;;;;;;7.20;1.48;;;13.20;24.90;;;;;;6338025;22;20329;-48
2022/04/25 04:14:46;;;;;;;2.45;1.77;;;13.30;25.10;;;;;;6338629;22;19999;-47
2022/04/25 04:17:12;;;;;;;2.53;1.40;;;13.20;25.10;;;;;;6336831;22;20070;-47
2022/04/25 04:19:38;;;;;;;2.53;1.25;;;13.20;25.10;;;;;;6310200;22;20029;-48
2022/04/25 04:22:05;;;;;;;4.30;1.63;;;13.20;25.10;;;;;;6336972;22;19999;-47
2022/04/25 04:24:32;;;;;;;2.40;1.27;;;13.10;25.50;;;;;;6337745;22;20002;-48
2022/04/25 04:27:01;;;;;;;1.52;0.90;;;13.10;25.60;;;;;;6337919;22;20002;-49
2022/04/25 04:29:29;;;;;;;6.25;1.48;;;13.20;25.70;;;;;;6337669;22;20378;-50
2022/04/25 04:32:01;;;;;;;4.45;1.38;;;13.20;25.60;;;;;;6337288;22;20003;-48
2022/04/25 04:34:27;;;;;;;3.53;1.40;;;13.20;25.70;;;;;;6310182;22;20146;-46
2022/04/25 04:36:53;;;;;;;2.47;1.50;;;13.20;25.80;;;;;;6337417;22;19999;-47
2022/04/25 04:39:19;;;;;;;4.50;1.50;;;13.20;25.60;;;;;;6337785;22;20454;-47
2022/04/25 04:41:45;;;;;;;3.95;1.38;;;13.10;25.80;;;;;;6337366;22;20144;-46
2022/04/25 04:44:11;;;;;;;3.67;1.42;;;13.10;26.10;;;;;;6338025;22;20428;-47
2022/04/25 04:46:37;;;;;;;5.93;1.73;;;13.20;26.00;;;;;;6337212;22;20003;-48
2022/04/25 04:49:03;;;;;;;2.50;1.67;;;13.20;25.90;;;;;;6337928;22;19995;-47
2022/04/25 04:51:29;;;;;;;3.90;1.50;;;13.20;25.90;;;;;;6336205;22;20034;-48
2022/04/25 04:53:55;;;;;;;3.05;1.52;;;13.30;26.00;;;;;;6334708;22;20007;-51
2022/04/25 04:56:20;;;;;;;4.07;1.67;;;13.20;26.10;;;;;;6335739;22;19999;-50
2022/04/25 04:58:46;;;;;;;2.05;1.52;;;13.30;26.00;;;;;;6336156;22;20056;-47
2022/04/25 05:01:12;;;;;;;3.53;1.63;;;13.30;26.10;;;;;;6336431;22;20025;-49
2022/04/25 05:03:41;;;;;;;4.05;1.75;;;13.30;26.00;;;;;;6308860;22;19999;-49
2022/04/25 05:06:07;;;;;;;3.20;1.67;;;13.40;26.00;;;;;;6336508;22;20408;-47
2022/04/25 05:08:33;;;;;;;3.15;1.67;;;13.40;26.10;;;;;;6336483;22;19999;-47
2022/04/25 05:10:59;;;;;;;2.65;1.67;;;13.40;26.20;;;;;;6336393;22;20010;-48
2022/04/25 05:13:24;;;;;;;5.82;1.80;;;13.40;26.30;;;;;;6337188;22;20045;-47
2022/04/25 05:15:50;;;;;;;3.03;2.00;;;13.40;26.30;;;;;;6337403;22;20532;-47
2022/04/25 05:18:15;;;;;;;3.42;1.55;;;13.40;26.50;;;;;;6337680;22;19999;-48
2022/04/25 05:20:41;;;;;;;5.22;1.85;;;13.40;26.60;;;;;;6308644;22;20080;-48
2022/04/25 05:23:10;;;;;;;4.78;1.70;;;13.50;26.50;;;;;;6337734;22;20027;-48
2022/04/25 05:25:38;;;;;;;3.78;2.20;;;13.60;26.40;;;;;;6337271;22;20026;-52
2022/04/25 05:28:05;;;;;;;3.67;2.53;;;13.60;26.50;;;;;;6337344;22;20038;-48
2022/04/25 05:30:32;;;;;;;5.18;2.65;;;13.60;26.30;;;;;;6337403;22;20073;-49
2022/04/25 05:33:02;;;;;;;4.15;2.33;;;13.60;26.30;;;;;;6337475;22;20404;-49
2022/04/25 05:35:32;;;;;;;4.20;1.55;;;13.60;26.40;;;;;;6338843;22;19999;-48
2022/04/25 05:37:58;;;;;;;2.92;1.48;;;13.70;26.50;;;;;;6311730;22;19998;-52
2022/04/25 05:40:28;;;;;;;6.05;2.13;;;13.70;26.40;;;;;;6311988;22;20082;-51
2022/04/25 05:42:56;;;;;;;2.05;1.48;;;13.80;26.50;;;;;;6339077;22;19999;-49
2022/04/25 05:45:24;;;;;;;3.65;1.20;;;13.80;26.40;;;;;;6339656;22;20003;-48
2022/04/25 05:47:51;;;;;;;4.10;1.50;;;13.90;26.30;;;;;;6338602;22;20066;-48
2022/04/25 05:53:05;;;;;;;3.47;1.15;;;14.00;26.20;;;;;;6339885;22;20455;-49
2022/04/25 05:55:31;;;;;;;4.28;1.38;;;14.00;26.00;;;;;;6311522;22;20028;-51
2022/04/25 05:57:58;;;;;;;4.07;1.00;;;14.20;25.90;;;;;;6338551;22;19995;-51
2022/04/25 06:00:25;;;;;;;2.72;1.50;;;14.20;25.70;;;;;;6339338;22;20429;-52
2022/04/25 06:02:51;;;;;;;4.95;1.90;;;14.20;25.70;;;;;;6338840;22;19999;-51
2022/04/25 06:05:16;;;;;;;4.47;1.67;;;14.20;25.70;;;;;;6339255;22;20009;-50
2022/04/25 06:07:43;;;;;;;4.85;1.45;;;14.30;25.70;;;;;;6310540;22;20466;-50
2022/04/25 06:10:11;;;;;;;5.55;1.33;;;14.20;25.70;;;;;;6338888;22;20006;-48
2022/04/25 06:12:48;;;;;;;4.85;1.48;;;14.30;25.60;;;;;;6338173;22;19999;-50
2022/04/25 06:15:20;;;;;;;2.75;1.30;;;14.30;25.50;;;;;;6339241;22;20074;-50
2022/04/25 06:17:46;;;;;;;3.25;1.40;;;14.20;25.60;;;;;;6338161;22;20039;-50
2022/04/25 06:20:11;;;;;;;3.13;1.35;;;14.30;25.50;;;;;;6339060;22;20381;-51
2022/04/25 06:22:38;;;;;;;4.07;1.48;;;14.40;25.60;;;;;;6310620;22;20098;-51
2022/04/25 06:25:05;;;;;;;3.85;1.80;;;14.30;25.40;;;;;;6311523;22;20327;-50
2022/04/25 06:27:32;;;;;;;2.38;1.30;;;14.40;25.20;;;;;;6338160;22;20002;-47
2022/04/25 06:29:58;;;;;;;3.42;1.40;;;14.50;25.20;;;;;;6339087;22;19994;-47
2022/04/25 06:32:24;;;;;;;3.97;1.70;;;14.60;24.90;;;;;;6338536;22;20013;-47
2022/04/25 06:34:50;;;;;;;4.35;1.73;;;14.60;24.60;;;;;;6338938;22;20033;-47
2022/04/25 06:37:16;;;;;;;3.88;1.60;;;14.80;24.60;;;;;;6338280;22;20010;-47
2022/04/25 06:39:42;;;;;;;4.10;1.80;;;14.90;24.40;;;;;;6338808;22;20010;-52
2022/04/25 06:42:09;;;;;;;3.92;1.63;;;14.90;24.20;;;;;;6338329;22;20454;-48
2022/04/25 06:44:38;;;;;;;3.83;1.55;;;15.00;24.10;;;;;;6338889;22;20007;-47
2022/04/25 06:47:05;;;;;;;2.63;1.20;;;15.00;23.90;;;;;;6338083;22;20002;-50
2022/04/25 06:49:31;;;;;;;3.13;1.48;;;14.90;24.10;;;;;;6338905;22;20023;-50
2022/04/25 06:51:59;;;;;;;3.83;1.92;;;14.90;24.00;;;;;;6338388;22;20400;-54
2022/04/25 06:54:27;;;;;;;4.68;1.52;;;14.80;24.10;;;;;;6338768;22;20077;-51
2022/04/25 06:56:54;;;;;;;5.55;1.20;;;14.80;24.00;;;;;;6338587;22;20003;-47
2022/04/25 06:59:21;;;;;;;1.60;1.38;;;14.90;24.00;;;;;;6338209;22;20049;-52
2022/04/25 07:01:48;;;;;;;3.90;1.60;;;14.90;23.80;;;;;;6338062;22;20010;-47
2022/04/25 07:04:15;;;;;;;3.15;1.55;;;15.00;23.90;;;;;;6338671;22;20003;-47
2022/04/25 07:06:41;;;;;;;1.40;1.20;;;14.90;23.80;;;;;;6338237;22;19998;-49
2022/04/25 07:09:07;;;;;;;3.78;1.90;;;14.90;23.60;;;;;;6338679;22;20071;-47
2022/04/25 07:11:33;;;;;;;1.70;1.55;;;14.90;23.50;;;;;;6338121;22;20069;-49
2022/04/25 07:14:02;;;;;;;2.67;1.75;;;14.90;24.00;;;;;;6338781;22;20111;-47
2022/04/25 07:16:29;;;;;;;4.28;1.45;;;14.90;23.80;;;;;;6310065;22;20429;-47
2022/04/25 07:18:55;;;;;;;4.50;1.35;;;15.10;23.60;;;;;;6338525;22;20010;-47
2022/04/25 07:29:33;;;;;;;7.00;2.53;;;15.50;22.70;;;;;;6337423;22;20026;-48
2022/04/25 07:31:59;;;;;;;3.78;1.92;;;15.80;22.40;;;;;;6338343;22;20225;-48
2022/04/25 07:34:24;;;;;;;4.03;1.58;;;15.80;22.40;;;;;;6338067;22;20011;-54
2022/04/25 07:36:53;;;;;;;2.70;1.58;;;15.80;22.10;;;;;;6338554;22;20081;-51
2022/04/25 07:39:20;;;;;;;5.65;1.55;;;15.80;21.60;;;;;;6337836;22;20436;-47
2022/04/25 07:41:47;;;;;;;5.85;2.13;;;15.80;21.90;;;;;;6339124;22;20324;-48
2022/04/25 07:44:13;;;;;;;3.25;1.45;;;15.80;21.40;;;;;;6337733;22;20083;-49
2022/04/25 07:46:40;;;;;;;3.67;1.60;;;15.90;21.60;;;;;;6310699;22;20422;-49
2022/04/25 07:49:07;;;;;;;2.90;1.20;;;15.90;20.60;;;;;;6338006;22;20080;-49
2022/04/25 07:51:33;;;;;;;3.00;1.50;;;15.70;21.00;;;;;;6310511;22;20003;-53
2022/04/25 07:53:59;;;;;;;2.60;1.30;;;15.80;20.60;;;;;;6310799;22;20049;-51
2022/04/25 07:56:26;;;;;;;2.83;1.23;;;15.70;19.30;;;;;;6337539;22;20414;-50
2022/04/25 07:58:51;;;;;;;4.93;1.48;;;15.70;20.70;;;;;;6309873;22;20027;-47
2022/04/25 08:01:17;;;;;;;2.90;1.52;;;15.70;20.40;;;;;;6338062;22;19999;-46
2022/04/25 08:03:43;;;;;;;1.98;1.35;;;15.70;20.40;;;;;;6337685;22;20010;-49
2022/04/25 08:06:11;;;;;;;2.50;1.33;;;15.70;20.50;;;;;;6337614;22;19995;-47
2022/04/25 08:08:37;;;;;;;1.83;1.15;;;15.50;20.80;;;;;;6338190;22;20105;-47
2022/04/25 08:11:03;;;;;;;3.72;1.20;;;15.50;20.80;;;;;;6337730;22;19998;-48
2022/04/25 08:18:58;;;;;;;3.75;1.60;;;15.60;20.80;;;;;;6338226;22;20013;-49
2022/04/25 08:21:24;;;;;;;3.22;1.42;;;15.70;20.70;;;;;;6337424;22;20113;-47
2022/04/25 08:23:50;;;;;;;3.47;1.60;;;15.70;20.00;;;;;;6337806;22;20305;-48
2022/04/25 08:26:16;;;;;;;1.92;1.25;;;15.70;20.20;;;;;;6337540;22;20056;-49
2022/04/25 08:28:41;;;;;;;3.83;1.40;;;15.70;20.20;;;;;;6337672;22;20060;-46
2022/04/25 08:31:09;;;;;;;2.13;1.10;;;15.80;20.10;;;;;;6309684;22;20007;-49
2022/04/25 08:33:36;;;;;;;2.97;1.35;;;15.80;20.00;;;;;;6338169;22;20090;-46
2022/04/25 08:36:03;;;;;;;2.78;1.25;;;15.80;20.00;;;;;;6337449;22;20010;-49
2022/04/25 08:38:29;;;;;;;3.85;1.88;;;15.90;20.20;;;;;;6310016;22;20002;-49
2022/04/25 08:40:55;;;;;;;1.88;1.20;;;15.90;20.00;;;;;;6337806;22;20007;-48
2022/04/25 08:43:22;;;;;;;3.47;1.88;;;16.00;19.70;;;;;;6337563;22;20396;-50
2022/04/25 08:45:48;;;;;;;4.22;1.55;;;16.10;19.80;;;;;;6337470;22;20002;-49
2022/04/25 08:48:14;;;;;;;4.22;1.10;;;16.10;19.40;;;;;;6337868;22;19995;-49
2022/04/25 08:50:41;;;;;;;3.42;1.55;;;16.10;19.20;;;;;;6337780;22;20007;-50
2022/04/25 08:53:09;;;;;;;2.42;1.20;;;16.10;19.20;;;;;;6337880;22;20006;-46
2022/04/25 08:55:35;;;;;;;1.75;1.40;;;16.10;19.30;;;;;;6337328;22;20003;-49
2022/04/25 08:58:02;;;;;;;4.30;1.75;;;16.20;18.90;;;;;;6338019;22;20365;-49
2022/04/25 09:00:28;;;;;;;2.25;1.70;;;16.30;19.20;;;;;;6337443;22;20006;-46
2022/04/25 09:02:54;;;;;;;4.63;1.30;;;16.40;20.50;;;;;;6337663;22;20057;-45
2022/04/25 09:05:21;;;;;;;5.43;2.70;;;16.40;20.20;;;;;;6337213;22;20002;-46
2022/04/25 09:07:47;;;;;;;4.30;1.60;;;16.60;26.30;;;;;;6337620;22;20005;-52
2022/04/25 09:10:18;;;;;;;9.05;2.80;;;16.60;25.50;;;;;;6336820;22;19998;-49
2022/04/25 09:12:46;;;;;;;11.70;4.78;;;16.60;26.40;;;;;;6336440;22;20023;-47
2022/04/25 09:15:12;;;;;;;4.72;1.77;;;16.70;25.50;;;;;;6309794;22;20428;-48
2022/04/25 09:17:38;;;;;;;11.57;3.88;;;16.70;24.40;;;;;;6337297;22;20010;-47
2022/04/25 09:20:08;;;;;;;6.20;2.85;;;16.70;24.10;;;;;;6337313;22;20124;-54
2022/04/25 09:22:37;;;;;;;3.15;1.70;;;16.70;18.00;;;;;;6337130;22;20034;-64
2022/04/25 09:25:13;;;;;;;8.88;2.90;;;16.70;17.50;;;;;;6337154;22;20344;-51
2022/04/25 09:27:41;;;;;;;3.90;2.42;;;16.80;17.60;;;;;;6336762;22;20103;-44
2022/04/25 09:30:22;;;;;;;2.80;1.60;;;16.80;18.20;;;;;;6337354;22;20009;-44
2022/04/25 09:32:52;;;;;;;2.60;2.10;;;17.10;28.20;;;;;;6337300;22;20426;-43
2022/04/25 09:35:51;;;;;;;2.95;2.47;;;17.10;28.10;;;;;;6337617;22;20009;-48
2022/04/25 09:38:31;;;;;;;4.95;2.78;;;17.20;22.90;;;;;;6309209;22;20315;-45
2022/04/25 09:40:56;;;;;;;4.82;2.58;;;17.20;19.20;;;;;;6337178;22;20094;-41
2022/04/25 09:43:31;;;;;;;3.60;2.45;;;17.20;17.70;;;;;;6335889;22;20429;-40
2022/04/25 09:46:07;;;;;;;5.63;2.45;;;17.40;27.00;;;;;;6337466;22;20439;-40
2022/04/25 09:48:34;;;;;;;5.82;2.70;;;17.40;26.10;;;;;;6337046;22;19998;-41
2022/04/25 09:51:02;;;;;;;2.45;1.70;;;17.40;20.70;;;;;;6337197;22;20447;-40
2022/04/25 09:53:41;;;;;;;5.38;2.05;;;17.40;16.60;;;;;;6336140;22;19999;-42
2022/04/25 09:56:11;;;;;;;4.00;1.55;;;17.50;16.00;;;;;;6335615;22;20009;-39
2022/04/25 09:58:37;;;;;;;2.55;2.00;;;17.60;15.90;;;;;;6336135;22;20006;-39
2022/04/25 10:01:11;;;;;;;4.18;2.30;;;17.60;14.90;;;;;;6335474;22;20011;-39
2022/04/25 10:03:37;;;;;;;2.40;1.87;;;;;;;;;;6335100;22;20055;-39
2022/04/25 10:06:04;;;;;;;7.63;2.42;;;17.70;15.90;;;;;;6336218;22;20616;-40
2022/04/25 10:08:34;;;;;;;2.72;2.05;;;17.90;15.60;;;;;;6335809;22;20421;-39
2022/04/25 10:11:02;;;;;;;3.05;1.30;;;18.00;15.50;;;;;;6335374;22;19999;-39
2022/04/25 10:13:30;;;;;;;3.00;2.40;;;18.10;14.50;;;;;;6335444;22;19999;-39
2022/04/25 10:15:57;;;;;;;2.78;1.67;;;18.20;13.40;;;;;;6336388;22;19995;-39
2022/04/25 10:18:25;;;;;;;3.65;1.65;;;18.30;13.80;;;;;;6308738;22;20010;-40
2022/04/25 10:20:50;;;;;;;2.03;1.40;;;18.20;13.70;;;;;;6337382;22;19999;-40
2022/04/25 10:23:17;;;;;;;2.13;1.60;;;18.10;12.50;;;;;;6338856;22;20007;-41
2022/04/25 10:25:57;;;;;;;2.42;1.50;;;18.10;13.70;;;;;;6338651;22;20002;-40
2022/04/25 10:28:33;;;;;;;3.03;1.80;;;18.20;13.50;;;;;;6338280;22;20014;-39
2022/04/25 10:31:05;;;;;;;6.05;1.85;;;18.30;13.10;;;;;;6336396;22;19999;-39
2022/04/25 10:33:50;;;;;;;2.53;1.80;;;;;;;;;;6338580;22;20002;-40
2022/04/25 10:36:40;;;;;;;6.38;2.30;;;18.60;11.50;;;;;;6339070;22;20003;-40
2022/04/25 10:39:15;;;;;;;3.55;1.67;;;;;;;;;;6338331;22;20064;-39
2022/04/25 10:44:26;;;;;;;3.10;2.40;;;19.10;16.60;;;;;;6338829;22;20053;-40
2022/04/25 10:47:05;;;;;;;4.00;2.20;;;;;;;;;;6338820;22;19999;-40
2022/04/25 10:49:35;;;;;;;4.55;2.05;;;19.40;11.30;;;;;;6338892;22;20035;-39
2022/04/25 10:52:02;;;;;;;3.70;1.58;;;19.40;20.40;;;;;;6310837;22;20480;-40
2022/04/25 10:54:28;;;;;;;1.70;1.48;;;;;;;;;;6338805;22;20003;-40
2022/04/25 10:57:09;;;;;;;3.10;1.60;;;19.70;33.80;;;;;;6338676;22;20002;-40
2022/04/25 10:59:37;;;;;;;3.03;2.10;;;19.60;8.50;;;;;;6338742;22;20007;-40
2022/04/25 11:02:21;;;;;;;4.93;1.65;;;19.50;9.70;;;;;;6338397;22;19995;-40
2022/04/25 11:04:47;;;;;;;8.23;1.80;;;;;;;;;;6338360;22;20059;-40
2022/04/25 11:07:19;;;;;;;2.17;1.38;;;;;;;;;;6311087;22;20009;-40
2022/04/25 11:09:45;;;;;;;3.28;1.92;;;;;;;;;;6338234;22;20332;-40
2022/04/25 11:12:10;;;;;;;3.45;1.80;;;20.40;19.80;;;;;;6338620;22;19999;-40
2022/04/25 11:14:36;;;;;;;2.80;1.50;;;20.50;9.30;;;;;;6310629;22;20003;-40
2022/04/25 11:17:20;;;;;;;3.42;1.63;;;;;;;;;;6338589;22;20435;-40
2022/04/25 11:19:51;;;;;;;3.28;2.35;;;20.70;5.00;;;;;;6338180;22;20109;-40
2022/04/25 11:22:36;;;;;;;1.85;1.30;;;;;;;;;;6338637;22;20336;-39
2022/04/25 11:25:30;;;;;;;2.78;1.45;;;20.90;5.00;;;;;;6338134;22;20154;-39
2022/04/25 11:28:03;;;;;;;5.60;1.90;;;21.10;10.00;;;;;;6305014;22;20022;-40
2022/04/25 11:30:29;;;;;;;3.30;1.90;;;21.20;14.60;;;;;;6310373;22;20420;-40
2022/04/25 11:33:01;;;;;;;2.72;1.85;;;;;;;;;;6338216;22;20120;-40
2022/04/25 11:35:27;;;;;;;2.25;1.55;;;21.40;3.50;;;;;;6337591;22;20005;-40
2022/04/25 11:37:56;;;;;;;3.58;1.75;;;21.40;2.90;;;;;;6338307;22;20002;-40
2022/04/25 11:40:23;;;;;;;4.13;1.98;;;21.30;2.80;;;;;;6337858;22;20486;-40
2022/04/25 11:42:49;;;;;;;4.10;1.67;;;21.30;4.10;;;;;;6338463;22;20003;-40
2022/04/25 11:45:14;;;;;;;5.65;2.90;;;21.40;4.10;;;;;;6337811;22;20072;-41
2022/04/25 11:47:40;;;;;;;4.55;2.55;;;21.20;3.60;;;;;;6338449;22;20064;-40
2022/04/25 11:50:11;;;;;;;4.10;2.03;;;20.90;3.60;;;;;;6337816;22;20063;-40
2022/04/25 11:52:48;;;;;;;2.55;1.40;;;20.80;3.00;;;;;;6337133;22;20328;-39
2022/04/25 11:55:16;;;;;;;3.03;1.50;;;20.70;3.60;;;;;;6337470;22;20009;-40
2022/04/25 11:57:43;;;;;;;3.63;1.75;;;20.60;4.60;;;;;;6337025;22;20010;-39
2022/04/25 12:00:19;;;;;;;1.90;1.23;;;20.60;4.30;;;;;;6337103;22;20151;-40
2022/04/25 12:02:45;;;;;;;3.50;1.65;;;20.70;3.90;;;;;;6309896;22;20003;-39
2022/04/25 12:05:12;;;;;;;2.45;1.08;;;20.70;4.10;;;;;;6336925;22;20332;-39
2022/04/25 12:15:34;;;;;;;6.40;3.47;;;20.80;3.70;;;;;;6337730;22;20293;-39
2022/04/25 12:15:57;;;;;;;2.72;2.08;;;20.80;3.80;;;;;;6338351;22;20014;-39
2022/04/25 12:18:26;;;;;;;3.53;1.98;;;21.20;3.50;;;;;;6337307;22;20399;-39
2022/04/25 12:20:58;;;;;;;1.90;1.23;;;22.60;2.00;;;;;;6337709;22;20022;-39
2022/04/25 12:23:28;;;;;;;2.55;1.35;;;22.80;4.30;;;;;;6309175;22;20083;-39
2022/04/25 12:25:55;;;;;;;3.70;1.80;;;23.40;1.00;;;;;;6337401;22;20052;-39
2022/04/25 12:28:23;;;;;;;4.32;1.42;;;23.80;1.00;;;;;;6336220;22;20493;-39
2022/04/25 12:31:09;;;;;;;3.22;1.63;;;23.30;1.00;;;;;;6337291;22;20003;-39
2022/04/25 12:33:39;;;;;;;3.65;1.60;;;22.90;1.00;;;;;;6336389;22;20007;-39
2022/04/25 12:36:16;;;;;;;3.03;1.58;;;22.50;1.00;;;;;;6338232;22;19999;-40
2022/04/25 12:38:56;;;;;;;2.72;1.30;;;22.20;1.00;;;;;;6337418;22;20010;-39
2022/04/25 12:41:26;;;;;;;3.22;2.10;;;21.80;1.00;;;;;;6337977;22;20041;-40
2022/04/25 12:43:54;;;;;;;2.75;1.50;;;21.60;1.20;;;;;;6337118;22;20003;-40
2022/04/25 12:47:00;;;;;;;2.95;1.92;;;21.50;1.70;;;;;;6337258;22;20376;-40
2022/04/25 12:49:33;;;;;;;3.63;1.73;;;21.50;6.80;;;;;;6259993;22;20063;-41
2022/04/25 12:51:59;;;;;;;3.40;1.55;;;;;;;;;;6337647;22;20002;-40
2022/04/25 12:54:37;;;;;;;6.28;3.08;;;21.50;4.90;;;;;;6309435;22;20113;-39
2022/04/25 12:57:08;;;;;;;2.25;2.05;;;;;;;;;;6337767;22;20005;-39
2022/04/25 12:59:34;;;;;;;3.45;1.38;;;21.40;1.90;;;;;;6337255;22;20013;-40
2022/04/25 13:02:11;;;;;;;1.50;1.38;;;21.50;2.30;;;;;;6337601;22;20006;-39
2022/04/25 13:04:55;;;;;;;3.03;1.52;;;21.70;1.90;;;;;;6309570;22;20093;-40
2022/04/25 13:07:24;;;;;;;2.17;1.77;;;21.50;1.30;;;;;;6338094;22;20384;-39
2022/04/25 13:09:55;;;;;;;3.50;1.60;;;21.40;2.20;;;;;;6337046;22;20069;-39
2022/04/25 13:12:21;;;;;;;4.25;1.42;;;21.30;2.50;;;;;;6309949;22;19999;-39
2022/04/25 13:14:47;;;;;;;1.88;1.30;;;21.30;2.60;;;;;;6337225;22;19999;-40
2022/04/25 13:17:13;;;;;;;5.60;1.48;;;21.20;2.70;;;;;;6337383;22;20005;-40
2022/04/25 13:19:39;;;;;;;3.28;1.45;;;21.30;2.80;;;;;;6337203;22;20015;-40
2022/04/25 13:22:05;;;;;;;2.80;1.63;;;21.30;3.60;;;;;;6337709;22;19999;-40
2022/04/25 13:24:32;;;;;;;2.55;1.13;;;21.30;3.40;;;;;;6337595;22;20013;-40
2022/04/25 13:26:58;;;;;;;4.80;1.48;;;21.30;3.00;;;;;;6309949;22;19999;-40
2022/04/25 13:29:23;;;;;;;2.25;1.10;;;21.60;3.00;;;;;;6336921;22;20014;-40